Time;durP1;ratioP1;P1;durP2;ratioP2;P2;SDS_P1;SDS_P2;PMS_P1;PMS_P2;Temp;Humidity;BMP_temperature;BMP_pressure;BME280_temperature;BME280_humidity;BME280_pressure;Samples;Min_cycle;Max_cycle;Signal;HPM_P1;HPM_P2
2022/10/05 00:00:43;;;;;;;0.10;0.10;;;;;;;;;;4997222;28;20328;-72
2022/10/05 00:03:10;;;;;;;0.10;0.10;;;;;;;;;;5013797;28;20209;-74
2022/10/05 00:05:36;;;;;;;0.10;0.10;;;;;;;;;;4997075;28;20444;-73
2022/10/05 00:08:07;;;;;;;0.10;0.10;;;;;;;;;;5014118;28;20374;-73
2022/10/05 00:10:35;;;;;;;0.10;0.10;;;;;;;;;;4997655;28;20491;-73
2022/10/05 00:13:02;;;;;;;0.10;0.10;;;;;;;;;;5018132;28;20219;-73
2022/10/05 00:15:28;;;;;;;0.10;0.10;;;;;;;;;;5000017;28;20471;-73
2022/10/05 00:17:55;;;;;;;0.10;0.10;;;;;;;;;;5018954;28;20212;-73
2022/10/05 00:20:22;;;;;;;0.10;0.10;;;;;;;;;;4998930;28;20416;-73
2022/10/05 00:22:50;;;;;;;0.10;0.10;;;;;;;;;;5019616;28;20284;-73
2022/10/05 00:25:17;;;;;;;0.10;0.10;;;;;;;;;;4998415;28;20445;-74
2022/10/05 00:27:46;;;;;;;0.10;0.10;;;;;;;;;;5020171;28;20281;-73
2022/10/05 00:30:14;;;;;;;0.10;0.10;;;;;;;;;;4997431;28;20226;-73
2022/10/05 00:32:41;;;;;;;0.10;0.10;;;;;;;;;;5020499;28;20399;-73
2022/10/05 00:35:08;;;;;;;0.10;0.10;;;;;;;;;;4996971;28;20252;-74
2022/10/05 00:37:36;;;;;;;0.10;0.10;;;;;;;;;;5020982;28;20232;-74
2022/10/05 00:40:03;;;;;;;0.10;0.10;;;;;;;;;;5006264;28;20375;-73
2022/10/05 00:42:38;;;;;;;0.10;0.10;;;;;;;;;;4995032;28;20209;-74
2022/10/05 00:45:07;;;;;;;0.10;0.10;;;;;;;;;;5004580;28;20265;-75
2022/10/05 00:47:42;;;;;;;0.10;0.10;;;;;;;;;;5020954;28;20255;-77
2022/10/05 00:50:21;;;;;;;0.10;0.10;;;;;;;;;;4997049;28;20247;-76
2022/10/05 00:52:52;;;;;;;0.10;0.10;;;;;;;;;;5019259;28;20209;-71
2022/10/05 00:55:21;;;;;;;0.10;0.10;;;;;;;;;;4998068;28;20194;-70
2022/10/05 00:57:53;;;;;;;0.10;0.10;;;;;;;;;;5019278;28;20207;-70
2022/10/05 01:00:23;;;;;;;0.10;0.10;;;;;;;;;;4997736;28;20225;-70
2022/10/05 01:02:54;;;;;;;0.10;0.10;;;;;;;;;;5018822;28;20210;-70
2022/10/05 01:05:25;;;;;;;0.10;0.10;;;;;;;;;;4998232;28;20195;-71
2022/10/05 01:07:53;;;;;;;0.10;0.10;;;;;;;;;;5018486;28;20215;-70
2022/10/05 01:10:25;;;;;;;0.10;0.10;;;;;;;;;;4997521;28;20232;-69
2022/10/05 01:12:56;;;;;;;0.10;0.10;;;;;;;;;;5018135;28;20397;-70
2022/10/05 01:15:27;;;;;;;0.10;0.10;;;;;;;;;;4997970;28;20196;-70
2022/10/05 01:17:57;;;;;;;0.10;0.10;;;;;;;;;;5018306;28;20211;-70
2022/10/05 01:20:29;;;;;;;0.10;0.10;;;;;;;;;;4998001;28;20399;-69
2022/10/05 01:23:03;;;;;;;0.10;0.10;;;;;;;;;;5016892;28;20323;-70
2022/10/05 01:25:34;;;;;;;0.10;0.10;;;;;;;;;;4998958;28;20241;-71
2022/10/05 01:28:04;;;;;;;0.10;0.10;;;;;;;;;;5016817;28;20208;-71
2022/10/05 01:30:36;;;;;;;0.10;0.10;;;;;;;;;;4998781;28;20456;-69
2022/10/05 01:33:05;;;;;;;0.10;0.10;;;;;;;;;;5016817;28;20202;-70
2022/10/05 01:35:36;;;;;;;0.10;0.10;;;;;;;;;;4998582;28;20241;-70
2022/10/05 01:38:08;;;;;;;0.10;0.10;;;;;;;;;;5016215;28;20250;-70
2022/10/05 01:40:39;;;;;;;0.20;0.20;;;;;;;;;;4998840;28;20290;-71
2022/10/05 01:43:10;;;;;;;0.10;0.10;;;;;;;;;;5016014;28;20214;-70
2022/10/05 01:45:45;;;;;;;0.10;0.10;;;;;;;;;;4999173;28;20248;-71
2022/10/05 01:48:18;;;;;;;0.10;0.10;;;;;;;;;;5015057;28;20208;-71
2022/10/05 01:50:47;;;;;;;0.10;0.10;;;;;;;;;;4999895;28;20336;-71
2022/10/05 01:53:16;;;;;;;0.10;0.10;;;;;;;;;;5014781;28;20460;-70
2022/10/05 01:55:48;;;;;;;0.10;0.10;;;;;;;;;;4999800;28;20242;-69
2022/10/05 01:58:19;;;;;;;0.10;0.10;;;;;;;;;;5014622;28;20204;-70
2022/10/05 02:00:51;;;;;;;0.10;0.10;;;;;;;;;;5000413;28;20451;-70
2022/10/05 02:03:19;;;;;;;0.10;0.10;;;;;;;;;;5014316;28;20202;-69
2022/10/05 02:05:49;;;;;;;0.10;0.10;;;;;;;;;;4999839;28;20249;-71
2022/10/05 02:08:17;;;;;;;0.10;0.10;;;;;;;;;;5014269;28;20425;-71
2022/10/05 02:10:47;;;;;;;0.10;0.10;;;;;;;;;;4999673;28;20264;-70
2022/10/05 02:13:15;;;;;;;0.10;0.10;;;;;;;;;;5014491;28;20279;-71
2022/10/05 02:15:44;;;;;;;0.10;0.10;;;;;;;;;;4999832;28;20320;-71
2022/10/05 02:18:12;;;;;;;0.10;0.10;;;;;;;;;;5014778;28;20399;-69
2022/10/05 02:20:40;;;;;;;0.10;0.10;;;;;;;;;;4999037;28;20245;-69
2022/10/05 02:23:09;;;;;;;0.10;0.10;;;;;;;;;;5015131;28;20244;-71
2022/10/05 02:25:37;;;;;;;0.10;0.10;;;;;;;;;;4998486;28;20243;-70
2022/10/05 02:28:07;;;;;;;0.10;0.10;;;;;;;;;;5015250;28;20250;-71
2022/10/05 02:30:37;;;;;;;0.10;0.10;;;;;;;;;;4997750;28;20246;-73
2022/10/05 02:33:07;;;;;;;0.10;0.10;;;;;;;;;;5015525;28;20302;-71
2022/10/05 02:35:34;;;;;;;0.10;0.10;;;;;;;;;;4998019;28;20249;-69
2022/10/05 02:38:05;;;;;;;0.10;0.10;;;;;;;;;;5015572;28;20290;-69
2022/10/05 02:40:39;;;;;;;0.10;0.10;;;;;;;;;;4997631;28;20248;-70
2022/10/05 02:43:09;;;;;;;0.10;0.10;;;;;;;;;;5014897;28;20397;-70
2022/10/05 02:45:41;;;;;;;0.10;0.10;;;;;;;;;;4998045;28;20430;-69
2022/10/05 02:48:12;;;;;;;0.10;0.10;;;;;;;;;;5014654;28;20218;-70
2022/10/05 02:50:43;;;;;;;0.10;0.10;;;;;;;;;;4998098;28;20269;-70
2022/10/05 02:53:14;;;;;;;0.10;0.10;;;;;;;;;;5013993;28;20235;-70
2022/10/05 02:55:44;;;;;;;0.10;0.10;;;;;;;;;;4998601;28;20247;-71
2022/10/05 02:58:13;;;;;;;0.10;0.10;;;;;;;;;;5013924;28;20215;-70
2022/10/05 03:00:42;;;;;;;0.10;0.10;;;;;;;;;;4998008;28;20296;-70
2022/10/05 03:03:13;;;;;;;0.10;0.10;;;;;;;;;;5014129;28;20210;-71
2022/10/05 03:05:42;;;;;;;0.10;0.10;;;;;;;;;;4997980;28;20247;-71
2022/10/05 03:08:13;;;;;;;0.10;0.10;;;;;;;;;;5013870;28;20401;-70
2022/10/05 03:10:43;;;;;;;0.10;0.10;;;;;;;;;;4998117;28;20580;-70
2022/10/05 03:13:12;;;;;;;0.10;0.10;;;;;;;;;;5013968;28;20217;-70
2022/10/05 03:15:47;;;;;;;0.10;0.10;;;;;;;;;;4997632;28;20586;-70
2022/10/05 03:18:20;;;;;;;0.10;0.10;;;;;;;;;;5013271;28;20206;-69
2022/10/05 03:20:51;;;;;;;0.10;0.10;;;;;;;;;;4998606;28;20247;-69
2022/10/05 03:23:24;;;;;;;0.10;0.10;;;;;;;;;;5012723;28;20211;-70
2022/10/05 03:25:59;;;;;;;0.10;0.10;;;;;;;;;;4999315;28;20249;-69
2022/10/05 03:28:29;;;;;;;0.10;0.10;;;;;;;;;;5011355;28;20210;-70
2022/10/05 03:31:00;;;;;;;0.10;0.10;;;;;;;;;;4999670;28;20242;-69
2022/10/05 03:33:30;;;;;;;0.10;0.10;;;;;;;;;;5011319;28;20195;-69
2022/10/05 03:36:01;;;;;;;0.10;0.10;;;;;;;;;;4999866;28;20257;-70
2022/10/05 03:38:31;;;;;;;0.10;0.10;;;;;;;;;;5011002;28;20207;-70
2022/10/05 03:41:01;;;;;;;0.10;0.10;;;;;;;;;;5000004;28;20238;-71
2022/10/05 03:43:43;;;;;;;0.10;0.10;;;;;;;;;;5011045;28;20230;-71
2022/10/05 03:46:13;;;;;;;0.10;0.10;;;;;;;;;;5001104;28;20301;-70
2022/10/05 03:48:44;;;;;;;0.10;0.10;;;;;;;;;;5009344;28;20282;-71
2022/10/05 03:51:17;;;;;;;0.10;0.10;;;;;;;;;;5001401;28;20257;-71
2022/10/05 03:53:47;;;;;;;0.10;0.10;;;;;;;;;;5008544;28;20194;-70
2022/10/05 03:56:14;;;;;;;0.10;0.10;;;;;;;;;;5001426;28;20245;-71
2022/10/05 03:58:42;;;;;;;0.10;0.10;;;;;;;;;;5009140;28;20228;-70
2022/10/05 04:01:11;;;;;;;0.10;0.10;;;;;;;;;;5000858;28;20536;-71
2022/10/05 04:03:39;;;;;;;0.10;0.10;;;;;;;;;;5009068;28;20206;-71
2022/10/05 04:06:10;;;;;;;0.10;0.10;;;;;;;;;;4999722;28;20272;-70
2022/10/05 04:08:40;;;;;;;0.10;0.10;;;;;;;;;;5009918;28;20263;-71
2022/10/05 04:11:12;;;;;;;0.10;0.10;;;;;;;;;;4998967;28;20285;-70
2022/10/05 04:13:41;;;;;;;0.10;0.10;;;;;;;;;;5009565;28;20207;-70
2022/10/05 04:16:09;;;;;;;0.10;0.10;;;;;;;;;;5000902;28;20264;-70
2022/10/05 04:18:38;;;;;;;0.10;0.10;;;;;;;;;;5009568;28;20274;-71
2022/10/05 04:21:06;;;;;;;0.10;0.10;;;;;;;;;;5000422;28;20243;-69
2022/10/05 04:23:39;;;;;;;0.10;0.10;;;;;;;;;;5009934;28;20380;-70
2022/10/05 04:26:07;;;;;;;0.10;0.10;;;;;;;;;;5000249;28;20268;-70
2022/10/05 04:28:39;;;;;;;0.10;0.10;;;;;;;;;;5009753;28;20229;-71
2022/10/05 04:31:07;;;;;;;0.10;0.10;;;;;;;;;;5000838;28;20456;-70
2022/10/05 04:33:33;;;;;;;0.10;0.10;;;;;;;;;;5010116;28;20281;-69
2022/10/05 04:36:13;;;;;;;0.10;0.10;;;;;;;;;;4999213;28;20241;-71
2022/10/05 04:38:57;;;;;;;0.10;0.10;;;;;;;;;;5009125;28;20230;-72
2022/10/05 04:41:29;;;;;;;0.10;0.10;;;;;;;;;;5002774;28;20445;-70
2022/10/05 04:44:01;;;;;;;0.10;0.10;;;;;;;;;;5006811;28;20197;-70
2022/10/05 04:46:33;;;;;;;0.10;0.10;;;;;;;;;;5003076;28;20596;-71
2022/10/05 04:49:08;;;;;;;0.10;0.10;;;;;;;;;;5006661;28;20268;-71
2022/10/05 04:51:37;;;;;;;0.10;0.10;;;;;;;;;;5003946;28;20271;-70
2022/10/05 04:54:11;;;;;;;0.10;0.10;;;;;;;;;;5005957;28;20361;-71
2022/10/05 04:56:39;;;;;;;0.10;0.10;;;;;;;;;;5004485;28;20241;-71
2022/10/05 04:59:17;;;;;;;0.10;0.10;;;;;;;;;;5008543;28;20573;-70
2022/10/05 05:01:52;;;;;;;0.10;0.10;;;;;;;;;;5008425;28;20242;-70
2022/10/05 05:04:32;;;;;;;0.10;0.10;;;;;;;;;;5007454;28;20200;-69
2022/10/05 05:07:02;;;;;;;0.10;0.10;;;;;;;;;;5010353;28;20311;-69
2022/10/05 05:09:41;;;;;;;0.10;0.10;;;;;;;;;;5006404;28;20212;-69
2022/10/05 05:12:17;;;;;;;0.10;0.10;;;;;;;;;;5011241;28;20233;-69
2022/10/05 05:14:49;;;;;;;0.10;0.10;;;;;;;;;;5006026;28;20282;-70
2022/10/05 05:17:22;;;;;;;0.10;0.10;;;;;;;;;;5010837;28;20248;-70
2022/10/05 05:19:55;;;;;;;0.10;0.10;;;;;;;;;;5005787;28;20424;-70
2022/10/05 05:22:26;;;;;;;0.10;0.10;;;;;;;;;;5010949;28;20242;-70
2022/10/05 05:25:01;;;;;;;0.10;0.10;;;;;;;;;;5005315;28;20251;-70
2022/10/05 05:27:38;;;;;;;0.10;0.10;;;;;;;;;;5010877;28;20280;-71
2022/10/05 05:30:12;;;;;;;0.10;0.10;;;;;;;;;;5005279;28;20229;-71
2022/10/05 05:32:42;;;;;;;0.10;0.10;;;;;;;;;;4997498;28;20208;-70
2022/10/05 05:35:17;;;;;;;0.10;0.10;;;;;;;;;;4996119;28;20331;-70
2022/10/05 05:37:49;;;;;;;0.10;0.10;;;;;;;;;;5018433;28;20247;-70
2022/10/05 05:40:20;;;;;;;0.10;0.10;;;;;;;;;;4996845;28;20384;-71
2022/10/05 05:42:51;;;;;;;0.10;0.10;;;;;;;;;;5018439;28;20316;-70
2022/10/05 05:45:23;;;;;;;0.10;0.10;;;;;;;;;;4996682;28;20207;-70
2022/10/05 05:47:52;;;;;;;0.10;0.10;;;;;;;;;;5018006;28;20206;-70
2022/10/05 05:50:30;;;;;;;0.10;0.10;;;;;;;;;;4996667;28;20274;-70
2022/10/05 05:52:58;;;;;;;0.10;0.10;;;;;;;;;;5016753;28;20208;-70
2022/10/05 05:55:29;;;;;;;0.10;0.10;;;;;;;;;;4997848;28;20289;-70
2022/10/05 05:57:58;;;;;;;0.10;0.10;;;;;;;;;;5017054;28;20223;-69
2022/10/05 06:00:27;;;;;;;0.10;0.10;;;;;;;;;;4996902;28;20231;-70
2022/10/05 06:02:56;;;;;;;0.10;0.10;;;;;;;;;;5017412;28;20471;-69
2022/10/05 06:05:27;;;;;;;0.10;0.10;;;;;;;;;;4996953;28;20208;-69
2022/10/05 06:07:54;;;;;;;0.10;0.10;;;;;;;;;;5016713;28;20213;-71
2022/10/05 06:10:26;;;;;;;0.10;0.10;;;;;;;;;;4996362;28;20228;-70
2022/10/05 06:12:55;;;;;;;0.10;0.10;;;;;;;;;;5017087;28;20273;-70
2022/10/05 06:15:30;;;;;;;0.10;0.10;;;;;;;;;;4996591;28;20262;-71
2022/10/05 06:17:59;;;;;;;0.10;0.10;;;;;;;;;;5016171;28;20217;-70
2022/10/05 06:20:28;;;;;;;0.10;0.10;;;;;;;;;;4997037;28;20444;-70
2022/10/05 06:23:01;;;;;;;0.10;0.10;;;;;;;;;;5016741;28;20214;-70
2022/10/05 06:25:33;;;;;;;0.10;0.10;;;;;;;;;;4996994;28;20490;-71
2022/10/05 06:28:02;;;;;;;0.10;0.10;;;;;;;;;;5016325;28;20223;-71
2022/10/05 06:30:32;;;;;;;0.10;0.10;;;;;;;;;;4997388;28;20346;-72
2022/10/05 06:33:04;;;;;;;0.10;0.10;;;;;;;;;;5015889;28;20210;-70
2022/10/05 06:35:38;;;;;;;0.10;0.10;;;;;;;;;;4997747;28;20467;-70
2022/10/05 06:38:15;;;;;;;0.10;0.10;;;;;;;;;;5014821;28;20224;-71
2022/10/05 06:40:49;;;;;;;0.10;0.10;;;;;;;;;;4998677;28;20276;-70
2022/10/05 06:43:24;;;;;;;0.10;0.10;;;;;;;;;;5013612;28;20217;-71
2022/10/05 06:45:55;;;;;;;0.10;0.10;;;;;;;;;;5000118;28;20241;-71
2022/10/05 06:48:27;;;;;;;0.10;0.10;;;;;;;;;;5012566;28;20202;-70
2022/10/05 06:50:56;;;;;;;0.10;0.10;;;;;;;;;;5000051;28;20259;-76
2022/10/05 06:53:28;;;;;;;0.10;0.10;;;;;;;;;;5012747;28;20207;-77
2022/10/05 06:55:58;;;;;;;0.10;0.10;;;;;;;;;;5000094;28;20238;-77
2022/10/05 06:58:33;;;;;;;0.10;0.10;;;;;;;;;;5012194;28;20398;-76
2022/10/05 07:01:03;;;;;;;0.10;0.10;;;;;;;;;;5000420;28;20257;-76
2022/10/05 07:03:34;;;;;;;0.10;0.10;;;;;;;;;;5011437;28;20270;-76
2022/10/05 07:06:06;;;;;;;0.10;0.10;;;;;;;;;;5000804;28;20241;-75
2022/10/05 07:08:42;;;;;;;0.10;0.10;;;;;;;;;;5011348;28;20213;-76
2022/10/05 07:11:16;;;;;;;0.10;0.10;;;;;;;;;;5001702;28;20300;-76
2022/10/05 07:13:55;;;;;;;0.10;0.10;;;;;;;;;;5009705;28;20202;-76
2022/10/05 07:16:26;;;;;;;0.10;0.10;;;;;;;;;;5003291;28;20249;-76
2022/10/05 07:18:59;;;;;;;0.10;0.10;;;;;;;;;;5008405;28;20195;-75
2022/10/05 07:21:30;;;;;;;0.10;0.10;;;;;;;;;;5002617;28;20241;-76
2022/10/05 07:24:02;;;;;;;0.10;0.10;;;;;;;;;;5008064;28;20195;-76
2022/10/05 07:26:32;;;;;;;0.10;0.10;;;;;;;;;;5003950;28;20302;-76
2022/10/05 07:29:14;;;;;;;0.10;0.10;;;;;;;;;;5007110;28;20206;-76
2022/10/05 07:31:45;;;;;;;0.10;0.10;;;;;;;;;;5005176;28;20347;-75
2022/10/05 07:34:16;;;;;;;0.10;0.10;;;;;;;;;;5005991;28;20198;-73
2022/10/05 07:39:34;;;;;;;0.10;0.10;;;;;;;;;;5003497;28;20233;-72
2022/10/05 07:42:08;;;;;;;0.10;0.10;;;;;;;;;;5008275;28;20452;-74
2022/10/05 07:44:38;;;;;;;0.10;0.10;;;;;;;;;;5003269;28;20213;-72
2022/10/05 07:47:09;;;;;;;0.10;0.10;;;;;;;;;;5008374;28;20447;-73
2022/10/05 07:49:40;;;;;;;0.10;0.10;;;;;;;;;;5003469;28;20228;-72
2022/10/05 07:52:10;;;;;;;0.10;0.10;;;;;;;;;;5008621;28;20239;-72
2022/10/05 07:54:45;;;;;;;0.10;0.10;;;;;;;;;;5003503;28;20202;-72
2022/10/05 07:57:17;;;;;;;0.10;0.10;;;;;;;;;;5008395;28;20247;-72
2022/10/05 07:59:48;;;;;;;0.10;0.10;;;;;;;;;;5003073;28;20229;-72
2022/10/05 08:02:18;;;;;;;0.10;0.10;;;;;;;;;;5008374;28;20438;-77
2022/10/05 08:04:51;;;;;;;0.10;0.10;;;;;;;;;;5003187;28;20395;-76
2022/10/05 08:07:18;;;;;;;0.10;0.10;;;;;;;;;;5008438;28;20242;-76
2022/10/05 08:09:47;;;;;;;0.10;0.10;;;;;;;;;;5002826;28;20208;-77
2022/10/05 08:12:22;;;;;;;0.10;0.10;;;;;;;;;;5008138;28;20242;-77
2022/10/05 08:14:55;;;;;;;0.10;0.10;;;;;;;;;;5002772;28;20208;-77
2022/10/05 08:17:25;;;;;;;0.10;0.10;;;;;;;;;;5008261;28;20269;-77
2022/10/05 08:19:55;;;;;;;0.10;0.10;;;;;;;;;;5002638;28;20210;-77
2022/10/05 08:22:24;;;;;;;0.10;0.10;;;;;;;;;;5008201;28;20237;-76
2022/10/05 08:24:54;;;;;;;0.10;0.10;;;;;;;;;;5002544;28;20521;-76
2022/10/05 08:27:23;;;;;;;0.10;0.10;;;;;;;;;;5007916;28;20243;-76
2022/10/05 08:29:52;;;;;;;0.10;0.10;;;;;;;;;;5002522;28;20227;-76
2022/10/05 08:32:22;;;;;;;0.10;0.10;;;;;;;;;;5010136;28;20299;-75
2022/10/05 08:34:51;;;;;;;0.10;0.10;;;;;;;;;;5006500;28;20259;-76
2022/10/05 08:37:20;;;;;;;0.10;0.10;;;;;;;;;;5011659;28;20305;-75
2022/10/05 08:39:50;;;;;;;0.10;0.10;;;;;;;;;;5006252;28;20208;-75
2022/10/05 08:42:35;;;;;;;0.10;0.10;;;;;;;;;;5011815;28;20245;-75
2022/10/05 08:45:08;;;;;;;0.10;0.10;;;;;;;;;;5006437;28;20478;-75
2022/10/05 08:47:47;;;;;;;0.10;0.10;;;;;;;;;;4995154;28;20222;-76
2022/10/05 08:50:25;;;;;;;0.10;0.10;;;;;;;;;;4997718;28;20197;-76
2022/10/05 08:53:01;;;;;;;0.10;0.10;;;;;;;;;;5018314;28;20259;-76
2022/10/05 08:55:37;;;;;;;0.10;0.10;;;;;;;;;;4999114;28;20246;-76
2022/10/05 08:58:15;;;;;;;0.10;0.10;;;;;;;;;;5016864;28;20199;-76
2022/10/05 09:00:47;;;;;;;0.10;0.10;;;;;;;;;;5000716;28;20491;-77
2022/10/05 09:03:33;;;;;;;0.10;0.10;;;;;;;;;;5015693;28;20209;-77
2022/10/05 09:06:15;;;;;;;0.00;0.00;;;;;;;;;;5002881;28;20250;-76
2022/10/05 09:09:05;;;;;;;0.10;0.10;;;;;;;;;;5012100;28;20209;-76
2022/10/05 09:11:34;;;;;;;0.00;0.00;;;;;;;;;;5004240;28;20250;-76
2022/10/05 09:14:17;;;;;;;0.10;0.10;;;;;;;;;;5009214;28;20219;-76
2022/10/05 09:16:58;;;;;;;0.10;0.10;;;;;;;;;;5008259;28;20252;-76
2022/10/05 09:19:54;;;;;;;0.10;0.10;;;;;;;;;;5006718;28;20460;-76
2022/10/05 09:22:34;;;;;;;0.10;0.10;;;;;;;;;;4955064;28;20249;-76
2022/10/05 09:25:08;;;;;;;0.10;0.10;;;;;;;;;;4999374;28;20275;-76
2022/10/05 09:27:36;;;;;;;0.10;0.10;;;;;;;;;;4994109;28;20219;-77
2022/10/05 09:30:12;;;;;;;0.10;0.10;;;;;;;;;;5005824;28;20258;-77
2022/10/05 09:32:54;;;;;;;0.10;0.10;;;;;;;;;;5004684;28;20228;-76
2022/10/05 09:35:29;;;;;;;0.10;0.10;;;;;;;;;;4999761;28;20420;-75
2022/10/05 09:38:10;;;;;;;0.00;0.00;;;;;;;;;;5036824;28;20221;-76
2022/10/05 09:40:55;;;;;;;0.10;0.10;;;;;;;;;;5018840;28;20253;-75
2022/10/05 09:43:54;;;;;;;0.10;0.10;;;;;;;;;;5033021;28;20245;-75
2022/10/05 09:46:44;;;;;;;0.10;0.10;;;;;;;;;;5024344;28;20245;-76
2022/10/05 09:49:31;;;;;;;0.10;0.10;;;;;;;;;;5014326;28;20375;-76
2022/10/05 09:52:08;;;;;;;0.10;0.10;;;;;;;;;;5028406;28;20243;-73
2022/10/05 09:54:49;;;;;;;0.10;0.10;;;;;;;;;;5025051;28;20242;-73
2022/10/05 09:57:29;;;;;;;0.10;0.10;;;;;;;;;;5029503;28;20247;-73
2022/10/05 10:00:20;;;;;;;0.10;0.10;;;;;;;;;;5024761;28;20440;-74
2022/10/05 10:03:03;;;;;;;0.03;0.03;;;;;;;;;;5024567;28;20439;-73
2022/10/05 10:05:47;;;;;;;0.00;0.00;;;;;;;;;;4995646;28;20522;-74
2022/10/05 10:08:19;;;;;;;0.10;0.10;;;;;;;;;;5034366;28;20380;-73
2022/10/05 10:10:55;;;;;;;0.10;0.10;;;;;;;;;;5018852;28;20286;-74
2022/10/05 10:13:28;;;;;;;0.10;0.10;;;;;;;;;;5033092;28;20260;-74
2022/10/05 10:16:09;;;;;;;0.10;0.10;;;;;;;;;;5019798;28;20241;-73
2022/10/05 10:18:54;;;;;;;0.10;0.10;;;;;;;;;;5031255;28;20216;-74
2022/10/05 10:21:33;;;;;;;0.10;0.10;;;;;;;;;;5023351;28;20494;-74
2022/10/05 10:24:09;;;;;;;0.10;0.10;;;;;;;;;;5028124;28;20239;-73
2022/10/05 10:26:54;;;;;;;0.00;0.00;;;;;;;;;;5025183;28;20250;-74
2022/10/05 10:29:30;;;;;;;0.10;0.10;;;;;;;;;;5025670;28;20212;-73
2022/10/05 10:32:05;;;;;;;0.10;0.10;;;;;;;;;;5027318;28;20277;-73
2022/10/05 10:34:52;;;;;;;0.10;0.10;;;;;;;;;;5024192;28;20214;-74
2022/10/05 10:37:33;;;;;;;0.10;0.10;;;;;;;;;;5005851;28;20295;-73
2022/10/05 10:40:12;;;;;;;0.10;0.10;;;;;;;;;;5024076;28;20214;-74
2022/10/05 10:42:42;;;;;;;0.10;0.10;;;;;;;;;;5012572;28;20204;-73
2022/10/05 10:45:23;;;;;;;0.10;0.10;;;;;;;;;;5013905;28;20235;-73
2022/10/05 10:48:00;;;;;;;0.10;0.10;;;;;;;;;;5024035;28;20277;-75
2022/10/05 10:50:45;;;;;;;0.10;0.10;;;;;;;;;;5015962;28;20248;-73
2022/10/05 10:53:19;;;;;;;0.10;0.10;;;;;;;;;;5033209;28;20288;-74
2022/10/05 10:55:51;;;;;;;0.10;0.10;;;;;;;;;;5017263;28;20363;-73
2022/10/05 10:58:38;;;;;;;0.10;0.10;;;;;;;;;;5032600;28;20286;-74
2022/10/05 11:01:10;;;;;;;0.10;0.10;;;;;;;;;;5020830;28;20613;-73
2022/10/05 11:03:52;;;;;;;0.10;0.10;;;;;;;;;;5030048;28;20211;-73
2022/10/05 11:06:27;;;;;;;0.10;0.10;;;;;;;;;;4999503;28;20257;-73
2022/10/05 11:09:15;;;;;;;0.00;0.00;;;;;;;;;;5027886;28;20208;-74
2022/10/05 11:11:58;;;;;;;0.10;0.10;;;;;;;;;;5024841;28;20243;-73
2022/10/05 11:14:39;;;;;;;0.10;0.10;;;;;;;;;;5024221;28;20205;-73
2022/10/05 11:17:17;;;;;;;0.10;0.10;;;;;;;;;;5026735;28;20247;-73
2022/10/05 11:19:45;;;;;;;0.10;0.10;;;;;;;;;;5023427;28;20211;-72
2022/10/05 11:22:24;;;;;;;0.10;0.10;;;;;;;;;;5027952;28;20242;-72
2022/10/05 11:25:03;;;;;;;0.10;0.10;;;;;;;;;;5023256;28;20285;-73
2022/10/05 11:27:35;;;;;;;0.00;0.00;;;;;;;;;;5011564;28;20210;-73
2022/10/05 11:30:29;;;;;;;0.40;0.40;;;;;;;;;;5023251;28;20207;-76
2022/10/05 11:33:11;;;;;;;0.10;0.10;;;;;;;;;;5020797;28;20226;-76
2022/10/05 11:35:52;;;;;;;0.00;0.00;;;;;;;;;;5016693;28;20543;-76
2022/10/05 11:38:36;;;;;;;0.10;0.10;;;;;;;;;;5031905;28;20222;-76
2022/10/05 11:41:17;;;;;;;0.00;0.00;;;;;;;;;;5019568;28;20246;-75
2022/10/05 11:43:52;;;;;;;0.10;0.10;;;;;;;;;;5028867;28;20214;-76
2022/10/05 11:46:24;;;;;;;0.05;0.05;;;;;;;;;;5021735;28;20243;-76
2022/10/05 11:49:05;;;;;;;0.10;0.10;;;;;;;;;;5027991;28;20212;-76
2022/10/05 11:51:38;;;;;;;0.10;0.10;;;;;;;;;;5014771;28;20262;-77
2022/10/05 11:54:17;;;;;;;0.10;0.10;;;;;;;;;;5025795;28;20210;-77
2022/10/05 11:56:48;;;;;;;0.10;0.10;;;;;;;;;;5024868;28;20620;-77
2022/10/05 11:59:17;;;;;;;0.00;0.00;;;;;;;;;;5024804;28;20266;-78
2022/10/05 12:01:48;;;;;;;0.10;0.10;;;;;;;;;;5024187;28;20597;-78
2022/10/05 12:04:17;;;;;;;0.05;0.05;;;;;;;;;;5024926;28;20213;-78
2022/10/05 12:06:51;;;;;;;0.10;0.10;;;;;;;;;;5025235;28;20280;-76
2022/10/05 12:09:24;;;;;;;0.10;0.10;;;;;;;;;;5028469;28;20212;-73
2022/10/05 12:11:59;;;;;;;0.10;0.10;;;;;;;;;;5029201;28;20268;-73
2022/10/05 12:14:33;;;;;;;0.10;0.10;;;;;;;;;;5027412;28;20212;-73
2022/10/05 12:17:01;;;;;;;0.00;0.00;;;;;;;;;;5030909;28;20562;-73
2022/10/05 12:19:32;;;;;;;0.00;0.00;;;;;;;;;;5027055;28;20285;-73
2022/10/05 12:22:02;;;;;;;0.00;0.00;;;;;;;;;;5030451;28;20250;-73
2022/10/05 12:24:42;;;;;;;0.00;0.00;;;;;;;;;;5026612;28;20215;-73
2022/10/05 12:27:14;;;;;;;0.00;0.00;;;;;;;;;;5031152;28;20268;-74
2022/10/05 12:29:42;;;;;;;0.05;0.05;;;;;;;;;;5026518;28;20446;-73
2022/10/05 12:32:13;;;;;;;0.10;0.10;;;;;;;;;;5030968;28;20311;-73
2022/10/05 12:34:47;;;;;;;0.00;0.00;;;;;;;;;;5026394;28;20206;-74
2022/10/05 12:37:30;;;;;;;0.10;0.10;;;;;;;;;;5030854;28;20325;-73
2022/10/05 12:40:02;;;;;;;0.05;0.05;;;;;;;;;;5026414;28;20415;-72
2022/10/05 12:42:32;;;;;;;0.00;0.00;;;;;;;;;;5030873;28;20260;-73
2022/10/05 12:45:13;;;;;;;0.08;0.08;;;;;;;;;;5026205;28;20288;-72
2022/10/05 12:47:44;;;;;;;0.10;0.10;;;;;;;;;;5021994;28;20219;-71
2022/10/05 12:50:17;;;;;;;0.00;0.00;;;;;;;;;;5016377;28;20208;-72
2022/10/05 12:52:48;;;;;;;0.10;0.10;;;;;;;;;;5039899;28;20220;-73
2022/10/05 12:55:19;;;;;;;0.10;0.10;;;;;;;;;;5016944;28;20218;-73
2022/10/05 12:57:51;;;;;;;0.05;0.05;;;;;;;;;;5039065;28;20239;-73
2022/10/05 13:00:18;;;;;;;0.08;0.08;;;;;;;;;;5016568;28;20230;-72
2022/10/05 13:02:46;;;;;;;0.00;0.00;;;;;;;;;;5039304;28;20211;-72
2022/10/05 13:05:25;;;;;;;0.00;0.00;;;;;;;;;;5015490;28;20208;-72
2022/10/05 13:08:00;;;;;;;0.13;0.13;;;;;;;;;;5038327;28;20457;-71
2022/10/05 13:10:31;;;;;;;0.00;0.00;;;;;;;;;;5017809;28;20455;-72
2022/10/05 13:13:05;;;;;;;0.10;0.10;;;;;;;;;;5037259;28;20222;-73
2022/10/05 13:15:33;;;;;;;0.10;0.10;;;;;;;;;;5018193;28;20339;-72
2022/10/05 13:18:05;;;;;;;0.10;0.10;;;;;;;;;;5035934;28;20288;-72
2022/10/05 13:20:34;;;;;;;0.00;0.00;;;;;;;;;;5018120;28;20249;-73
2022/10/05 13:23:04;;;;;;;0.10;0.10;;;;;;;;;;5036417;28;20193;-73
2022/10/05 13:25:31;;;;;;;0.10;0.10;;;;;;;;;;5018248;28;20521;-73
2022/10/05 13:28:13;;;;;;;0.10;0.10;;;;;;;;;;5036879;28;20216;-73
2022/10/05 13:30:41;;;;;;;0.10;0.10;;;;;;;;;;5019221;28;20311;-72
2022/10/05 13:33:16;;;;;;;0.10;0.10;;;;;;;;;;5035537;28;20232;-73
2022/10/05 13:35:44;;;;;;;0.00;0.00;;;;;;;;;;5019357;28;20346;-74
2022/10/05 13:38:19;;;;;;;0.55;0.55;;;;;;;;;;5034602;28;20423;-73
2022/10/05 13:40:48;;;;;;;0.00;0.00;;;;;;;;;;5019783;28;20270;-73
2022/10/05 13:43:20;;;;;;;0.00;0.00;;;;;;;;;;5034235;28;20214;-73
2022/10/05 13:45:49;;;;;;;0.10;0.10;;;;;;;;;;5019512;28;20602;-72
2022/10/05 13:48:19;;;;;;;0.10;0.10;;;;;;;;;;5034376;28;20255;-73
2022/10/05 13:50:51;;;;;;;0.00;0.00;;;;;;;;;;5019392;28;20269;-73
2022/10/05 13:53:20;;;;;;;0.10;0.10;;;;;;;;;;5033970;28;20227;-73
2022/10/05 13:55:49;;;;;;;0.00;0.00;;;;;;;;;;5019511;28;20243;-73
2022/10/05 13:58:22;;;;;;;0.00;0.00;;;;;;;;;;5034028;28;20499;-74
2022/10/05 14:00:50;;;;;;;0.10;0.10;;;;;;;;;;5019857;28;20241;-74
2022/10/05 14:03:26;;;;;;;0.10;0.10;;;;;;;;;;5033792;28;20550;-73
2022/10/05 14:05:53;;;;;;;0.10;0.10;;;;;;;;;;5020016;28;20562;-72
2022/10/05 14:08:24;;;;;;;0.00;0.00;;;;;;;;;;5033163;28;20395;-74
2022/10/05 14:10:52;;;;;;;0.10;0.10;;;;;;;;;;5019859;28;20554;-74
2022/10/05 14:13:25;;;;;;;0.08;0.08;;;;;;;;;;5033408;28;20402;-74
2022/10/05 14:16:03;;;;;;;0.00;0.00;;;;;;;;;;5019868;28;20243;-73
2022/10/05 14:18:30;;;;;;;0.10;0.10;;;;;;;;;;5032066;28;20213;-73
2022/10/05 14:20:57;;;;;;;0.00;0.00;;;;;;;;;;5020430;28;20255;-73
2022/10/05 14:23:25;;;;;;;0.10;0.10;;;;;;;;;;5032631;28;20204;-73
2022/10/05 14:25:52;;;;;;;0.10;0.10;;;;;;;;;;5019030;28;20288;-73
2022/10/05 14:28:24;;;;;;;0.10;0.10;;;;;;;;;;5033074;28;20226;-73
2022/10/05 14:30:57;;;;;;;0.08;0.08;;;;;;;;;;5019286;28;20248;-73
2022/10/05 14:33:25;;;;;;;0.10;0.10;;;;;;;;;;5032401;28;20236;-77
2022/10/05 14:35:53;;;;;;;0.10;0.10;;;;;;;;;;5019373;28;20428;-77
2022/10/05 14:38:21;;;;;;;0.00;0.00;;;;;;;;;;5032764;28;20241;-77
2022/10/05 14:41:02;;;;;;;0.00;0.00;;;;;;;;;;5018680;28;20259;-76
2022/10/05 14:43:29;;;;;;;0.10;0.10;;;;;;;;;;5031895;28;20519;-77
2022/10/05 14:45:58;;;;;;;0.10;0.10;;;;;;;;;;5019889;28;20312;-78
2022/10/05 14:48:26;;;;;;;0.10;0.10;;;;;;;;;;5032285;28;20212;-78
2022/10/05 14:50:54;;;;;;;0.10;0.10;;;;;;;;;;5019159;28;20241;-77
2022/10/05 14:53:21;;;;;;;0.00;0.00;;;;;;;;;;5032374;28;20388;-78
2022/10/05 14:56:02;;;;;;;0.10;0.10;;;;;;;;;;5018461;28;20256;-77
2022/10/05 14:58:36;;;;;;;0.10;0.10;;;;;;;;;;5031544;28;20303;-77
2022/10/05 15:01:12;;;;;;;0.10;0.10;;;;;;;;;;5020429;28;20249;-78
2022/10/05 15:03:45;;;;;;;0.10;0.10;;;;;;;;;;5030185;28;20385;-77
2022/10/05 15:06:15;;;;;;;0.10;0.10;;;;;;;;;;5021702;28;20241;-77
2022/10/05 15:08:49;;;;;;;0.10;0.10;;;;;;;;;;5029470;28;20215;-76
2022/10/05 15:11:26;;;;;;;0.10;0.10;;;;;;;;;;5021925;28;20323;-77
2022/10/05 15:13:52;;;;;;;0.10;0.10;;;;;;;;;;5027951;28;20234;-77
2022/10/05 15:16:23;;;;;;;0.10;0.10;;;;;;;;;;5022219;28;20435;-78
2022/10/05 15:18:52;;;;;;;0.00;0.00;;;;;;;;;;5028386;28;20283;-77